Terminal Aerodrome Forecast
Issued by NWS

Home | Current Version | Previous Version | Text Only | Print | Product List | Glossary On
Versions: 1 2 3 4 5 6 7 8 9 10 11 12
000
FTUS46 KSGX 190500
TAFTRM
TAF
KTRM 190520Z 1906/2006 33005KT P6SM BKN080
     FM191900 13008KT P6SM SCT150
     FM200200 33008KT P6SM SKC=

USA.gov is the U.S. government's official web portal to all federal, state and local government web resources and services.